sensor_id;sensor_type;location;lat;lon;timestamp;pressure;altitude;pressure_sealevel;temperature;humidity
75998;BME280;64685;48.762;44.822;2024-02-23T00:03:51;102884.88;;;-4.62;100.00
75998;BME280;64685;48.762;44.822;2024-02-23T00:08:55;102884.91;;;-4.70;100.00
75998;BME280;64685;48.762;44.822;2024-02-23T00:13:58;102886.06;;;-4.64;100.00
75998;BME280;64685;48.762;44.822;2024-02-23T00:19:02;102887.78;;;-4.55;100.00
75998;BME280;64685;48.762;44.822;2024-02-23T00:24:06;102898.34;;;-4.44;100.00
75998;BME280;64685;48.762;44.822;2024-02-23T00:29:10;102904.50;;;-4.58;100.00
75998;BME280;64685;48.762;44.822;2024-02-23T00:34:14;102883.03;;;-4.77;100.00
75998;BME280;64685;48.762;44.822;2024-02-23T00:39:17;102909.25;;;-4.60;100.00
75998;BME280;64685;48.762;44.822;2024-02-23T00:44:21;102918.13;;;-4.74;100.00
75998;BME280;64685;48.762;44.822;2024-02-23T00:49:25;102890.53;;;-4.79;100.00
75998;BME280;64685;48.762;44.822;2024-02-23T00:54:31;102887.44;;;-4.84;100.00
75998;BME280;64685;48.762;44.822;2024-02-23T00:59:34;102895.94;;;-4.87;100.00
75998;BME280;64685;48.762;44.822;2024-02-23T01:04:38;102908.56;;;-4.70;100.00
75998;BME280;64685;48.762;44.822;2024-02-23T01:09:41;102906.19;;;-4.73;100.00
75998;BME280;64685;48.762;44.822;2024-02-23T01:14:45;102888.66;;;-4.71;100.00
75998;BME280;64685;48.762;44.822;2024-02-23T01:19:51;102910.63;;;-4.56;100.00
75998;BME280;64685;48.762;44.822;2024-02-23T01:24:55;102903.44;;;-4.33;100.00
75998;BME280;64685;48.762;44.822;2024-02-23T01:29:59;102919.47;;;-4.38;100.00
75998;BME280;64685;48.762;44.822;2024-02-23T01:35:05;102891.66;;;-4.34;100.00
75998;BME280;64685;48.762;44.822;2024-02-23T01:40:10;102909.56;;;-4.39;100.00
75998;BME280;64685;48.762;44.822;2024-02-23T01:45:13;102927.81;;;-4.40;100.00
75998;BME280;64685;48.762;44.822;2024-02-23T01:50:16;102917.94;;;-4.57;100.00
75998;BME280;64685;48.762;44.822;2024-02-23T01:55:20;102896.63;;;-4.53;100.00
75998;BME280;64685;48.762;44.822;2024-02-23T02:00:25;102931.56;;;-4.41;100.00
75998;BME280;64685;48.762;44.822;2024-02-23T02:05:30;102930.19;;;-4.29;100.00
75998;BME280;64685;48.762;44.822;2024-02-23T02:10:33;102903.81;;;-4.52;100.00
75998;BME280;64685;48.762;44.822;2024-02-23T02:15:37;102933.25;;;-4.40;100.00
75998;BME280;64685;48.762;44.822;2024-02-23T02:20:55;102922.34;;;-4.56;100.00
75998;BME280;64685;48.762;44.822;2024-02-23T02:26:00;102951.31;;;-4.23;100.00
75998;BME280;64685;48.762;44.822;2024-02-23T02:31:04;102948.22;;;-4.12;100.00
75998;BME280;64685;48.762;44.822;2024-02-23T02:36:07;102944.50;;;-4.27;100.00
75998;BME280;64685;48.762;44.822;2024-02-23T02:41:11;102955.06;;;-4.24;100.00
75998;BME280;64685;48.762;44.822;2024-02-23T02:46:14;102954.50;;;-4.03;100.00
75998;BME280;64685;48.762;44.822;2024-02-23T02:51:18;102973.63;;;-3.95;100.00
75998;BME280;64685;48.762;44.822;2024-02-23T02:56:21;102964.91;;;-4.07;100.00
75998;BME280;64685;48.762;44.822;2024-02-23T03:01:25;102968.00;;;-4.18;100.00
75998;BME280;64685;48.762;44.822;2024-02-23T03:06:29;102949.28;;;-4.21;100.00
75998;BME280;64685;48.762;44.822;2024-02-23T03:11:33;102978.59;;;-4.31;100.00
75998;BME280;64685;48.762;44.822;2024-02-23T03:16:37;102957.28;;;-4.43;100.00
75998;BME280;64685;48.762;44.822;2024-02-23T03:21:40;102991.19;;;-4.14;100.00
75998;BME280;64685;48.762;44.822;2024-02-23T03:26:44;102975.84;;;-4.07;100.00
75998;BME280;64685;48.762;44.822;2024-02-23T03:31:47;102985.56;;;-4.04;100.00
75998;BME280;64685;48.762;44.822;2024-02-23T03:36:51;102981.63;;;-4.18;100.00
75998;BME280;64685;48.762;44.822;2024-02-23T03:41:54;102977.06;;;-4.17;100.00
75998;BME280;64685;48.762;44.822;2024-02-23T03:46:58;102994.25;;;-4.25;100.00
75998;BME280;64685;48.762;44.822;2024-02-23T03:52:01;103006.88;;;-4.32;100.00
75998;BME280;64685;48.762;44.822;2024-02-23T03:57:05;102997.34;;;-4.20;100.00
75998;BME280;64685;48.762;44.822;2024-02-23T04:02:08;103003.31;;;-4.24;100.00
75998;BME280;64685;48.762;44.822;2024-02-23T04:07:12;103001.91;;;-4.36;100.00
75998;BME280;64685;48.762;44.822;2024-02-23T04:12:16;103015.91;;;-4.07;100.00
75998;BME280;64685;48.762;44.822;2024-02-23T04:17:20;103007.56;;;-4.14;100.00
75998;BME280;64685;48.762;44.822;2024-02-23T04:22:23;103022.22;;;-4.15;100.00
75998;BME280;64685;48.762;44.822;2024-02-23T04:27:27;103029.19;;;-4.20;100.00
75998;BME280;64685;48.762;44.822;2024-02-23T04:32:30;103039.25;;;-4.13;100.00
75998;BME280;64685;48.762;44.822;2024-02-23T04:37:34;103011.31;;;-4.47;100.00
75998;BME280;64685;48.762;44.822;2024-02-23T04:43:10;103036.38;;;-4.35;100.00
75998;BME280;64685;48.762;44.822;2024-02-23T04:48:14;103028.53;;;-4.38;100.00
75998;BME280;64685;48.762;44.822;2024-02-23T04:53:18;103045.38;;;-4.11;100.00
75998;BME280;64685;48.762;44.822;2024-02-23T04:58:22;103025.63;;;-4.13;100.00
75998;BME280;64685;48.762;44.822;2024-02-23T05:03:26;103042.66;;;-4.19;100.00
75998;BME280;64685;48.762;44.822;2024-02-23T05:08:29;103047.97;;;-4.01;100.00
75998;BME280;64685;48.762;44.822;2024-02-23T05:13:33;103053.94;;;-3.98;100.00
75998;BME280;64685;48.762;44.822;2024-02-23T05:18:37;103051.91;;;-4.04;100.00
75998;BME280;64685;48.762;44.822;2024-02-23T05:23:41;103066.03;;;-4.00;100.00
75998;BME280;64685;48.762;44.822;2024-02-23T05:28:44;103046.94;;;-4.16;100.00
75998;BME280;64685;48.762;44.822;2024-02-23T05:33:48;103080.53;;;-4.08;100.00
75998;BME280;64685;48.762;44.822;2024-02-23T05:38:51;103074.91;;;-4.06;100.00
75998;BME280;64685;48.762;44.822;2024-02-23T05:43:55;103089.72;;;-4.01;100.00
75998;BME280;64685;48.762;44.822;2024-02-23T05:48:59;103079.50;;;-4.15;100.00
75998;BME280;64685;48.762;44.822;2024-02-23T05:54:03;103091.44;;;-4.00;100.00
75998;BME280;64685;48.762;44.822;2024-02-23T05:59:07;103088.53;;;-3.98;100.00
75998;BME280;64685;48.762;44.822;2024-02-23T06:04:11;103082.22;;;-3.75;100.00
75998;BME280;64685;48.762;44.822;2024-02-23T06:09:14;103085.28;;;-3.94;100.00
75998;BME280;64685;48.762;44.822;2024-02-23T06:14:18;103082.22;;;-3.67;100.00
75998;BME280;64685;48.762;44.822;2024-02-23T06:19:23;103082.72;;;-3.71;100.00
75998;BME280;64685;48.762;44.822;2024-02-23T06:24:27;103094.69;;;-3.72;100.00
75998;BME280;64685;48.762;44.822;2024-02-23T06:29:30;103097.75;;;-3.75;100.00
75998;BME280;64685;48.762;44.822;2024-02-23T06:34:34;103104.56;;;-3.71;100.00
75998;BME280;64685;48.762;44.822;2024-02-23T06:39:38;103083.41;;;-3.61;100.00
75998;BME280;64685;48.762;44.822;2024-02-23T06:44:42;103093.63;;;-3.55;100.00
75998;BME280;64685;48.762;44.822;2024-02-23T06:49:46;103104.19;;;-3.52;100.00
75998;BME280;64685;48.762;44.822;2024-02-23T06:54:50;103101.78;;;-3.31;100.00
75998;BME280;64685;48.762;44.822;2024-02-23T06:59:53;103096.38;;;-3.55;100.00
75998;BME280;64685;48.762;44.822;2024-02-23T07:04:57;103106.91;;;-3.36;100.00
75998;BME280;64685;48.762;44.822;2024-02-23T07:10:02;103093.88;;;-3.18;100.00
75998;BME280;64685;48.762;44.822;2024-02-23T07:15:06;103098.84;;;-3.22;100.00
75998;BME280;64685;48.762;44.822;2024-02-23T07:20:10;103088.84;;;-2.99;100.00
75998;BME280;64685;48.762;44.822;2024-02-23T07:25:20;103092.28;;;-3.05;100.00
75998;BME280;64685;48.762;44.822;2024-02-23T07:30:24;103115.19;;;-3.06;100.00
75998;BME280;64685;48.762;44.822;2024-02-23T07:35:28;103105.78;;;-3.03;100.00
75998;BME280;64685;48.762;44.822;2024-02-23T07:40:31;103120.09;;;-2.93;100.00
75998;BME280;64685;48.762;44.822;2024-02-23T07:45:35;103114.38;;;-2.76;100.00
75998;BME280;64685;48.762;44.822;2024-02-23T07:50:40;103122.28;;;-2.50;100.00
75998;BME280;64685;48.762;44.822;2024-02-23T07:55:43;103137.72;;;-2.57;100.00
75998;BME280;64685;48.762;44.822;2024-02-23T08:00:47;103134.63;;;-2.54;100.00
75998;BME280;64685;48.762;44.822;2024-02-23T08:05:50;103154.13;;;-2.57;100.00
75998;BME280;64685;48.762;44.822;2024-02-23T08:10:54;103148.31;;;-2.54;100.00
75998;BME280;64685;48.762;44.822;2024-02-23T08:15:58;103148.31;;;-2.54;100.00
75998;BME280;64685;48.762;44.822;2024-02-23T08:21:02;103147.09;;;-2.52;100.00
75998;BME280;64685;48.762;44.822;2024-02-23T08:26:06;103135.28;;;-2.44;100.00
75998;BME280;64685;48.762;44.822;2024-02-23T08:31:10;103153.66;;;-2.30;100.00
75998;BME280;64685;48.762;44.822;2024-02-23T08:36:13;103140.03;;;-2.38;100.00
75998;BME280;64685;48.762;44.822;2024-02-23T08:41:17;103143.03;;;-2.25;100.00
75998;BME280;64685;48.762;44.822;2024-02-23T08:46:21;103140.75;;;-2.44;100.00
75998;BME280;64685;48.762;44.822;2024-02-23T08:51:25;103147.53;;;-2.32;100.00
75998;BME280;64685;48.762;44.822;2024-02-23T08:56:28;103160.31;;;-2.25;100.00
75998;BME280;64685;48.762;44.822;2024-02-23T09:01:32;103145.59;;;-2.01;100.00
75998;BME280;64685;48.762;44.822;2024-02-23T09:06:35;103149.41;;;-1.80;100.00
75998;BME280;64685;48.762;44.822;2024-02-23T09:11:41;103156.44;;;-1.85;100.00
75998;BME280;64685;48.762;44.822;2024-02-23T09:16:45;103135.06;;;-2.12;100.00
75998;BME280;64685;48.762;44.822;2024-02-23T09:21:54;103149.06;;;-1.62;100.00
75998;BME280;64685;48.762;44.822;2024-02-23T09:26:57;103135.63;;;-1.72;100.00
75998;BME280;64685;48.762;44.822;2024-02-23T09:32:01;103147.75;;;-1.89;100.00
75998;BME280;64685;48.762;44.822;2024-02-23T09:37:05;103150.75;;;-1.61;100.00
75998;BME280;64685;48.762;44.822;2024-02-23T09:42:10;103135.03;;;-1.45;100.00
75998;BME280;64685;48.762;44.822;2024-02-23T09:47:17;103135.63;;;-1.72;100.00
75998;BME280;64685;48.762;44.822;2024-02-23T09:52:21;103126.66;;;-1.88;100.00
75998;BME280;64685;48.762;44.822;2024-02-23T09:57:26;103131.53;;;-1.76;100.00
75998;BME280;64685;48.762;44.822;2024-02-23T10:02:30;103142.25;;;-1.66;100.00
75998;BME280;64685;48.762;44.822;2024-02-23T10:07:34;103137.41;;;-1.79;100.00
75998;BME280;64685;48.762;44.822;2024-02-23T10:12:38;103154.94;;;-1.65;100.00
75998;BME280;64685;48.762;44.822;2024-02-23T10:17:42;103138.63;;;-1.44;100.00
75998;BME280;64685;48.762;44.822;2024-02-23T10:22:46;103150.78;;;-1.47;100.00
75998;BME280;64685;48.762;44.822;2024-02-23T10:27:50;103163.75;;;-1.41;100.00
75998;BME280;64685;48.762;44.822;2024-02-23T10:32:56;103160.66;;;-1.38;100.00
75998;BME280;64685;48.762;44.822;2024-02-23T10:38:01;103158.84;;;-1.45;100.00
75998;BME280;64685;48.762;44.822;2024-02-23T10:43:11;103153.03;;;-1.28;100.00
75998;BME280;64685;48.762;44.822;2024-02-23T10:48:16;103149.81;;;-1.31;100.00
75998;BME280;64685;48.762;44.822;2024-02-23T10:53:21;103166.19;;;-1.09;100.00
75998;BME280;64685;48.762;44.822;2024-02-23T10:58:28;103155.50;;;-1.18;100.00
75998;BME280;64685;48.762;44.822;2024-02-23T11:03:32;103166.06;;;-1.15;100.00
75998;BME280;64685;48.762;44.822;2024-02-23T11:08:36;103158.22;;;-1.33;100.00
75998;BME280;64685;48.762;44.822;2024-02-23T11:13:40;103162.72;;;-0.88;100.00
75998;BME280;64685;48.762;44.822;2024-02-23T11:18:46;103177.81;;;-1.07;100.00
75998;BME280;64685;48.762;44.822;2024-02-23T11:23:51;103176.88;;;-0.99;100.00
75998;BME280;64685;48.762;44.822;2024-02-23T11:28:56;103173.38;;;-0.93;100.00
75998;BME280;64685;48.762;44.822;2024-02-23T11:34:01;103182.78;;;-0.73;100.00
75998;BME280;64685;48.762;44.822;2024-02-23T11:39:04;103187.97;;;-0.78;100.00
75998;BME280;64685;48.762;44.822;2024-02-23T11:44:09;103177.47;;;-0.89;100.00
75998;BME280;64685;48.762;44.822;2024-02-23T11:49:14;103166.88;;;-0.92;100.00
75998;BME280;64685;48.762;44.822;2024-02-23T11:54:20;103185.63;;;-0.81;100.00
75998;BME280;64685;48.762;44.822;2024-02-23T11:59:25;103183.91;;;-0.82;100.00
75998;BME280;64685;48.762;44.822;2024-02-23T12:04:29;103181.38;;;-0.84;100.00
75998;BME280;64685;48.762;44.822;2024-02-23T12:09:43;103179.84;;;-0.72;100.00
75998;BME280;64685;48.762;44.822;2024-02-23T12:14:47;103189.78;;;-0.71;100.00
75998;BME280;64685;48.762;44.822;2024-02-23T12:19:58;103174.72;;;-0.60;100.00
75998;BME280;64685;48.762;44.822;2024-02-23T12:25:02;103187.16;;;-0.64;100.00
75998;BME280;64685;48.762;44.822;2024-02-23T12:30:12;103188.91;;;-1.00;100.00
75998;BME280;64685;48.762;44.822;2024-02-23T12:35:17;103188.63;;;-0.91;100.00
75998;BME280;64685;48.762;44.822;2024-02-23T12:40:21;103191.13;;;-1.18;100.00
75998;BME280;64685;48.762;44.822;2024-02-23T12:45:25;103180.72;;;-1.37;100.00
75998;BME280;64685;48.762;44.822;2024-02-23T12:50:32;103187.50;;;-1.33;100.00
75998;BME280;64685;48.762;44.822;2024-02-23T12:55:36;103201.81;;;-1.23;100.00
75998;BME280;64685;48.762;44.822;2024-02-23T13:00:40;103211.63;;;-1.51;100.00
75998;BME280;64685;48.762;44.822;2024-02-23T13:05:43;103215.53;;;-1.68;100.00
75998;BME280;64685;48.762;44.822;2024-02-23T13:10:47;103212.38;;;-1.57;100.00
75998;BME280;64685;48.762;44.822;2024-02-23T13:15:51;103219.53;;;-1.56;100.00
75998;BME280;64685;48.762;44.822;2024-02-23T13:20:55;103224.94;;;-1.93;100.00
75998;BME280;64685;48.762;44.822;2024-02-23T13:26:00;103233.34;;;-1.95;100.00
75998;BME280;64685;48.762;44.822;2024-02-23T13:31:06;103241.94;;;-2.06;100.00
75998;BME280;64685;48.762;44.822;2024-02-23T13:36:10;103252.50;;;-1.95;100.00
75998;BME280;64685;48.762;44.822;2024-02-23T13:41:14;103248.63;;;-2.08;100.00
75998;BME280;64685;48.762;44.822;2024-02-23T13:46:18;103241.84;;;-2.20;100.00
75998;BME280;64685;48.762;44.822;2024-02-23T13:51:22;103266.16;;;-2.25;100.00
75998;BME280;64685;48.762;44.822;2024-02-23T13:56:26;103264.78;;;-2.29;100.00
75998;BME280;64685;48.762;44.822;2024-02-23T14:01:30;103253.72;;;-2.36;100.00
75998;BME280;64685;48.762;44.822;2024-02-23T14:06:33;103263.63;;;-2.43;100.00
75998;BME280;64685;48.762;44.822;2024-02-23T14:11:37;103277.47;;;-2.36;100.00
75998;BME280;64685;48.762;44.822;2024-02-23T14:16:43;103276.06;;;-2.24;100.00
75998;BME280;64685;48.762;44.822;2024-02-23T14:21:47;103289.19;;;-2.20;100.00
75998;BME280;64685;48.762;44.822;2024-02-23T14:26:51;103281.88;;;-2.19;100.00
75998;BME280;64685;48.762;44.822;2024-02-23T14:31:55;103302.59;;;-2.33;100.00
75998;BME280;64685;48.762;44.822;2024-02-23T14:36:59;103283.88;;;-2.60;100.00
75998;BME280;64685;48.762;44.822;2024-02-23T14:42:03;103326.75;;;-2.52;100.00
75998;BME280;64685;48.762;44.822;2024-02-23T14:47:07;103321.31;;;-2.68;100.00
75998;BME280;64685;48.762;44.822;2024-02-23T14:52:11;103324.25;;;-2.70;100.00
75998;BME280;64685;48.762;44.822;2024-02-23T14:57:15;103333.09;;;-2.76;100.00
75998;BME280;64685;48.762;44.822;2024-02-23T15:02:21;103326.63;;;-2.75;100.00
75998;BME280;64685;48.762;44.822;2024-02-23T15:07:25;103336.69;;;-2.75;100.00
75998;BME280;64685;48.762;44.822;2024-02-23T15:12:28;103338.75;;;-2.77;100.00
75998;BME280;64685;48.762;44.822;2024-02-23T15:17:32;103339.97;;;-2.96;100.00
75998;BME280;64685;48.762;44.822;2024-02-23T15:22:37;103366.09;;;-2.93;100.00
75998;BME280;64685;48.762;44.822;2024-02-23T15:27:45;103383.53;;;-2.86;100.00
75998;BME280;64685;48.762;44.822;2024-02-23T15:32:50;103372.59;;;-2.86;100.00
75998;BME280;64685;48.762;44.822;2024-02-23T15:37:54;103374.81;;;-2.98;100.00
75998;BME280;64685;48.762;44.822;2024-02-23T15:42:59;103389.50;;;-3.15;100.00
75998;BME280;64685;48.762;44.822;2024-02-23T15:48:06;103395.94;;;-3.24;100.00
75998;BME280;64685;48.762;44.822;2024-02-23T15:53:10;103399.03;;;-3.11;100.00
75998;BME280;64685;48.762;44.822;2024-02-23T15:58:15;103410.13;;;-3.20;100.00
75998;BME280;64685;48.762;44.822;2024-02-23T16:03:20;103391.81;;;-3.36;100.00
75998;BME280;64685;48.762;44.822;2024-02-23T16:08:45;103409.09;;;-3.19;100.00
75998;BME280;64685;48.762;44.822;2024-02-23T16:13:49;103421.91;;;-3.20;100.00
75998;BME280;64685;48.762;44.822;2024-02-23T16:18:53;103410.28;;;-3.22;100.00
75998;BME280;64685;48.762;44.822;2024-02-23T16:24:00;103414.41;;;-3.10;100.00
75998;BME280;64685;48.762;44.822;2024-02-23T16:29:05;103420.19;;;-3.21;100.00
75998;BME280;64685;48.762;44.822;2024-02-23T16:34:09;103415.38;;;-3.27;100.00
75998;BME280;64685;48.762;44.822;2024-02-23T16:39:13;103433.47;;;-3.34;100.00
75998;BME280;64685;48.762;44.822;2024-02-23T16:44:17;103418.94;;;-3.42;100.00
75998;BME280;64685;48.762;44.822;2024-02-23T16:49:23;103418.44;;;-3.38;100.00
75998;BME280;64685;48.762;44.822;2024-02-23T16:54:26;103427.19;;;-3.26;100.00
75998;BME280;64685;48.762;44.822;2024-02-23T16:59:31;103401.22;;;-3.30;100.00
75998;BME280;64685;48.762;44.822;2024-02-23T17:04:36;103408.06;;;-3.26;100.00
75998;BME280;64685;48.762;44.822;2024-02-23T17:09:39;103407.75;;;-3.23;100.00
75998;BME280;64685;48.762;44.822;2024-02-23T17:14:47;103409.75;;;-3.33;100.00
75998;BME280;64685;48.762;44.822;2024-02-23T17:19:53;103419.09;;;-3.44;100.00
75998;BME280;64685;48.762;44.822;2024-02-23T17:24:56;103438.41;;;-3.45;100.00
75998;BME280;64685;48.762;44.822;2024-02-23T17:30:00;103436.72;;;-3.38;100.00
75998;BME280;64685;48.762;44.822;2024-02-23T17:35:05;103445.28;;;-3.25;100.00
75998;BME280;64685;48.762;44.822;2024-02-23T17:40:09;103450.22;;;-3.21;100.00
75998;BME280;64685;48.762;44.822;2024-02-23T17:45:13;103459.59;;;-3.31;100.00
75998;BME280;64685;48.762;44.822;2024-02-23T17:50:17;103430.16;;;-3.53;100.00
75998;BME280;64685;48.762;44.822;2024-02-23T17:55:20;103444.53;;;-3.51;100.00
75998;BME280;64685;48.762;44.822;2024-02-23T18:00:24;103454.06;;;-3.47;100.00
75998;BME280;64685;48.762;44.822;2024-02-23T18:05:28;103450.00;;;-3.43;100.00
75998;BME280;64685;48.762;44.822;2024-02-23T18:10:34;103454.22;;;-3.57;100.00
75998;BME280;64685;48.762;44.822;2024-02-23T18:15:39;103456.72;;;-3.71;100.00
75998;BME280;64685;48.762;44.822;2024-02-23T18:20:42;103445.75;;;-3.79;100.00
75998;BME280;64685;48.762;44.822;2024-02-23T18:25:46;103439.97;;;-3.76;100.00
75998;BME280;64685;48.762;44.822;2024-02-23T18:30:50;103438.13;;;-3.68;100.00
75998;BME280;64685;48.762;44.822;2024-02-23T18:35:54;103449.72;;;-3.66;100.00
75998;BME280;64685;48.762;44.822;2024-02-23T18:40:57;103443.13;;;-3.55;100.00
75998;BME280;64685;48.762;44.822;2024-02-23T18:46:06;103456.56;;;-3.62;100.00
75998;BME280;64685;48.762;44.822;2024-02-23T18:51:10;103434.88;;;-3.71;100.00
75998;BME280;64685;48.762;44.822;2024-02-23T18:56:15;103465.25;;;-3.66;100.00
75998;BME280;64685;48.762;44.822;2024-02-23T19:01:18;103456.50;;;-3.78;100.00
75998;BME280;64685;48.762;44.822;2024-02-23T19:06:22;103457.34;;;-3.77;100.00
75998;BME280;64685;48.762;44.822;2024-02-23T19:11:26;103462.47;;;-3.74;100.00
75998;BME280;64685;48.762;44.822;2024-02-23T19:16:30;103463.66;;;-3.77;100.00
75998;BME280;64685;48.762;44.822;2024-02-23T19:21:34;103444.88;;;-3.80;100.00
75998;BME280;64685;48.762;44.822;2024-02-23T19:26:38;103463.50;;;-3.75;100.00
75998;BME280;64685;48.762;44.822;2024-02-23T19:31:42;103472.97;;;-3.62;100.00
75998;BME280;64685;48.762;44.822;2024-02-23T19:36:45;103476.09;;;-3.49;100.00
75998;BME280;64685;48.762;44.822;2024-02-23T19:41:52;103462.19;;;-3.63;100.00
75998;BME280;64685;48.762;44.822;2024-02-23T19:46:55;103466.81;;;-3.64;100.00
75998;BME280;64685;48.762;44.822;2024-02-23T19:52:01;103493.91;;;-3.37;100.00
75998;BME280;64685;48.762;44.822;2024-02-23T19:57:05;103492.53;;;-3.41;100.00
75998;BME280;64685;48.762;44.822;2024-02-23T20:02:08;103484.47;;;-3.50;100.00
75998;BME280;64685;48.762;44.822;2024-02-23T20:07:22;103482.75;;;-3.51;100.00
75998;BME280;64685;48.762;44.822;2024-02-23T20:12:26;103491.69;;;-3.67;100.00
75998;BME280;64685;48.762;44.822;2024-02-23T20:17:32;103500.25;;;-3.62;100.00
75998;BME280;64685;48.762;44.822;2024-02-23T20:22:39;103493.63;;;-3.59;100.00
75998;BME280;64685;48.762;44.822;2024-02-23T20:27:43;103502.81;;;-3.68;100.00
75998;BME280;64685;48.762;44.822;2024-02-23T20:32:47;103496.63;;;-3.70;100.00
75998;BME280;64685;48.762;44.822;2024-02-23T20:37:51;103489.25;;;-3.78;100.00
75998;BME280;64685;48.762;44.822;2024-02-23T20:42:54;103494.69;;;-3.78;100.00
75998;BME280;64685;48.762;44.822;2024-02-23T20:47:58;103528.31;;;-3.52;100.00
75998;BME280;64685;48.762;44.822;2024-02-23T20:53:02;103524.56;;;-3.51;100.00
75998;BME280;64685;48.762;44.822;2024-02-23T20:58:06;103534.22;;;-3.31;100.00
75998;BME280;64685;48.762;44.822;2024-02-23T21:03:10;103536.50;;;-3.52;100.00
75998;BME280;64685;48.762;44.822;2024-02-23T21:08:19;103528.84;;;-3.48;100.00
75998;BME280;64685;48.762;44.822;2024-02-23T21:13:23;103537.84;;;-3.56;100.00
75998;BME280;64685;48.762;44.822;2024-02-23T21:18:27;103535.97;;;-3.55;100.00
75998;BME280;64685;48.762;44.822;2024-02-23T21:23:31;103531.75;;;-3.75;100.00
75998;BME280;64685;48.762;44.822;2024-02-23T21:28:34;103537.69;;;-3.80;100.00
75998;BME280;64685;48.762;44.822;2024-02-23T21:33:38;103550.06;;;-3.68;100.00
75998;BME280;64685;48.762;44.822;2024-02-23T21:38:42;103549.91;;;-3.66;100.00
75998;BME280;64685;48.762;44.822;2024-02-23T21:43:46;103542.66;;;-3.75;100.00
75998;BME280;64685;48.762;44.822;2024-02-23T21:48:49;103531.56;;;-3.82;100.00
75998;BME280;64685;48.762;44.822;2024-02-23T21:53:53;103529.00;;;-3.75;100.00
75998;BME280;64685;48.762;44.822;2024-02-23T21:58:56;103531.09;;;-3.69;100.00
75998;BME280;64685;48.762;44.822;2024-02-23T22:04:00;103548.19;;;-3.67;100.00
75998;BME280;64685;48.762;44.822;2024-02-23T22:09:04;103559.63;;;-3.89;100.00
75998;BME280;64685;48.762;44.822;2024-02-23T22:14:11;103571.50;;;-3.98;100.00
75998;BME280;64685;48.762;44.822;2024-02-23T22:19:14;103571.50;;;-3.98;100.00
75998;BME280;64685;48.762;44.822;2024-02-23T22:24:18;103577.34;;;-4.11;100.00
75998;BME280;64685;48.762;44.822;2024-02-23T22:29:23;103577.59;;;-4.22;100.00
75998;BME280;64685;48.762;44.822;2024-02-23T22:34:27;103583.84;;;-4.29;100.00
75998;BME280;64685;48.762;44.822;2024-02-23T22:39:30;103590.91;;;-4.36;100.00
75998;BME280;64685;48.762;44.822;2024-02-23T22:44:34;103592.56;;;-4.26;100.00
75998;BME280;64685;48.762;44.822;2024-02-23T22:49:38;103585.56;;;-4.28;100.00
75998;BME280;64685;48.762;44.822;2024-02-23T22:54:42;103573.78;;;-4.29;100.00
75998;BME280;64685;48.762;44.822;2024-02-23T22:59:45;103582.91;;;-4.20;100.00
75998;BME280;64685;48.762;44.822;2024-02-23T23:04:49;103593.41;;;-4.25;100.00
75998;BME280;64685;48.762;44.822;2024-02-23T23:09:53;103593.41;;;-4.25;100.00
75998;BME280;64685;48.762;44.822;2024-02-23T23:14:56;103600.72;;;-4.08;100.00
75998;BME280;64685;48.762;44.822;2024-02-23T23:20:00;103602.88;;;-4.20;100.00
75998;BME280;64685;48.762;44.822;2024-02-23T23:25:08;103589.63;;;-4.15;100.00
75998;BME280;64685;48.762;44.822;2024-02-23T23:30:12;103602.69;;;-4.01;100.00
75998;BME280;64685;48.762;44.822;2024-02-23T23:35:15;103601.13;;;-4.03;100.00
75998;BME280;64685;48.762;44.822;2024-02-23T23:40:19;103610.19;;;-4.20;100.00
75998;BME280;64685;48.762;44.822;2024-02-23T23:45:23;103593.66;;;-4.19;100.00
75998;BME280;64685;48.762;44.822;2024-02-23T23:50:27;103593.41;;;-4.25;100.00
75998;BME280;64685;48.762;44.822;2024-02-23T23:55:30;103585.56;;;-4.28;100.00
